Zim Yokohama — A8MY4 — position and weather

sailwx.info

Track history (hours):
 
Tides and Currents Weather Stations Pressure Air Temp Water Temp Dewpoint Dewpoint Depression Visibility Wind Speed Wind Dir Waves Ship Positions

Zim Yokohama

Last reported at 2019-Feb-19 10:43 UTC. Time now 2019-Feb-20 18:44 UTC.
Position N 39°25' W 000°16'.

Length 260 m; draft 12.1 m.

Type: Ship (hazmat cat A). MMSI: 636013436.

Date/timePositionNaut miles runAvg speedWind from/ knotsBaromVisibWave heightAir tempDewpointWater temp
2019-Feb-19 10:43N 39°25' W 000°16'2 9.9
2019-Feb-19 10:30N 39°26' W 000°18'1 1.8
2019-Feb-19 09:52N 39°27' W 000°19'0 0.0
2019-Feb-19 09:28N 39°27' W 000°19'0 0.0
2019-Feb-19 08:58N 39°27' W 000°19'0 0.0
2019-Feb-19 08:28N 39°27' W 000°19'0 0.0
2019-Feb-19 07:43N 39°27' W 000°19'0 0.0
2019-Feb-19 07:28N 39°27' W 000°19'0 0.0
2019-Feb-19 06:58N 39°27' W 000°19'0 0.0
2019-Feb-19 06:22N 39°27' W 000°19'0 0.0
2019-Feb-19 05:55N 39°27' W 000°19'0 0.0
2019-Feb-19 05:07N 39°27' W 000°19'0 0.1
2019-Feb-19 04:58N 39°27' W 000°19'0 0.0
2019-Feb-19 04:28N 39°27' W 000°19'0 0.0
2019-Feb-19 03:58N 39°27' W 000°19'0 0.0
2019-Feb-19 03:16N 39°27' W 000°19'0 0.0
2019-Feb-19 02:58N 39°27' W 000°19'0 0.0
2019-Feb-19 02:28N 39°27' W 000°19'0 0.0
2019-Feb-19 01:58N 39°27' W 000°19'0 0.0
2019-Feb-19 01:28N 39°27' W 000°19'0 0.0
2019-Feb-19 00:55N 39°27' W 000°19'0 0.0
2019-Feb-19 00:19N 39°27' W 000°19'0 0.0
2019-Feb-18 23:58N 39°27' W 000°19'0 0.1
2019-Feb-18 23:30N 39°27' W 000°19'3 5.6
2019-Feb-18 23:00N 39°25' W 000°17'1 1.2
2019-Feb-18 22:27N 39°25' W 000°16'2 5.1
2019-Feb-18 22:00N 39°25' W 000°13'3 6.8
2019-Feb-18 21:30N 39°27' W 000°10'4 6.6
2019-Feb-18 20:56N 39°30' W 000°06'3 6.5
2019-Feb-18 20:30N 39°32' W 000°03'127 9.5
2019-Feb-18 07:10N 41°02' E 001°54'613.5
2019-Feb-18 06:45N 41°06' E 001°59'413.1
2019-Feb-18 06:26N 41°09' E 002°03'513.0
2019-Feb-18 06:01N 41°14' E 002°07'611.1
2019-Feb-18 05:31N 41°19' E 002°10'2 4.3
2019-Feb-18 04:59N 41°21' E 002°10'0 0.0
2019-Feb-18 04:29N 41°21' E 002°10'0 0.0
2019-Feb-18 03:59N 41°21' E 002°10'0 0.0
2019-Feb-18 03:29N 41°21' E 002°10'0 0.0
2019-Feb-18 02:59N 41°21' E 002°10'0 0.0
2019-Feb-18 02:29N 41°21' E 002°10'0 0.0
2019-Feb-18 01:59N 41°21' E 002°10'0 0.0
2019-Feb-18 01:29N 41°21' E 002°10'0 0.0
2019-Feb-18 00:59N 41°21' E 002°10'0 0.0
2019-Feb-18 00:20N 41°21' E 002°10'0 0.0
2019-Feb-17 23:59N 41°21' E 002°10'0 0.0
2019-Feb-17 23:29N 41°21' E 002°10'0 0.0
2019-Feb-17 22:59N 41°21' E 002°10'0 0.0
2019-Feb-17 22:29N 41°21' E 002°10'0 0.0
2019-Feb-17 21:59N 41°21' E 002°10'0 0.0
2019-Feb-17 21:29N 41°21' E 002°10'0 0.0
2019-Feb-17 20:59N 41°21' E 002°10'0 0.0
2019-Feb-17 20:29N 41°21' E 002°10'0 0.0
2019-Feb-17 19:59N 41°21' E 002°10'0 0.0
2019-Feb-17 19:29N 41°21' E 002°10'0 0.0
2019-Feb-17 18:59N 41°21' E 002°10'0 0.0
2019-Feb-17 18:29N 41°21' E 002°10'0 0.0
2019-Feb-17 17:59N 41°21' E 002°10'0 0.4
2019-Feb-17 17:30N 41°21' E 002°10'2 4.3
2019-Feb-17 17:00N 41°19' E 002°10'4 7.4
2019-Feb-17 16:30N 41°17' E 002°15'510.7
2019-Feb-17 16:00N 41°19' E 002°22'613.0
2019-Feb-17 15:30N 41°21' E 002°30'713.3
2019-Feb-17 15:00N 41°23' E 002°38'713.1
2019-Feb-17 14:27N 41°25' E 002°47'912.2
2019-Feb-17 13:44N 41°28' E 002°58'312.0
2019-Feb-17 13:30N 41°29' E 003°02'611.8
2019-Feb-17 13:00N 41°31' E 003°09'12812.5
2019-Feb-17 02:49N 42°14' E 005°51'413.3
2019-Feb-17 02:29N 42°15' E 005°56'713.6
2019-Feb-17 02:00N 42°18' E 006°05'713.5
2019-Feb-17 01:30N 42°20' E 006°13'913.3
2019-Feb-17 00:49N 42°23' E 006°25'413.2
2019-Feb-17 00:30N 42°24' E 006°30'713.3
2019-Feb-17 00:00N 42°27' E 006°39'713.2
2019-Feb-16 23:29N 42°29' E 006°47'1913.0
2019-Feb-16 22:01N 42°35' E 007°12'013.1
2019-Feb-16 21:59N 42°35' E 007°12'613.1
2019-Feb-16 21:30N 42°38' E 007°20'712.9
2019-Feb-16 21:00N 42°40' E 007°29'612.9
2019-Feb-16 20:30N 42°42' E 007°37'613.0
2019-Feb-16 20:00N 42°44' E 007°45'613.0
2019-Feb-16 19:30N 42°46' E 007°54'612.8
2019-Feb-16 19:00N 42°48' E 008°02'612.4
2019-Feb-16 18:30N 42°51' E 008°10'612.6
2019-Feb-16 18:00N 42°53' E 008°18'612.6
2019-Feb-16 17:30N 42°55' E 008°26'612.7
2019-Feb-16 17:00N 42°57' E 008°34'612.9
2019-Feb-16 16:30N 42°59' E 008°42'612.0
2019-Feb-16 16:00N 43°01' E 008°50'612.1
2019-Feb-16 15:30N 43°03' E 008°58'612.6
2019-Feb-16 15:00N 43°05' E 009°06'712.5
2019-Feb-16 14:29N 43°07' E 009°15'612.5
2019-Feb-16 14:00N 43°09' E 009°22'612.5
2019-Feb-16 13:30N 43°11' E 009°30'612.6
2019-Feb-16 13:00N 43°14' E 009°38'612.3
2019-Feb-16 12:30N 43°16' E 009°46'612.5
2019-Feb-16 12:00N 43°18' E 009°54'612.1
2019-Feb-16 11:30N 43°21' E 010°01'612.5
2019-Feb-16 11:00N 43°26' E 010°07'612.4
2019-Feb-16 10:30N 43°31' E 010°13'4 8.5
2019-Feb-16 10:00N 43°33' E 010°18'2 3.8
2019-Feb-16 09:30N 43°35' E 010°18'0 0.0
2019-Feb-16 09:00N 43°35' E 010°18'0 0.0
2019-Feb-16 08:30N 43°35' E 010°18'0 0.0
2019-Feb-16 08:00N 43°35' E 010°18'0 0.0
2019-Feb-16 07:30N 43°35' E 010°18'0 0.0
2019-Feb-16 07:00N 43°35' E 010°18'0 0.0
2019-Feb-16 06:30N 43°35' E 010°18'0 0.0
2019-Feb-16 06:00N 43°35' E 010°18'0 0.0
2019-Feb-16 05:30N 43°35' E 010°18'0 0.0
2019-Feb-16 05:00N 43°35' E 010°18'0 0.0
2019-Feb-16 04:30N 43°35' E 010°18'0 0.0
2019-Feb-16 04:00N 43°35' E 010°18'0 0.0
2019-Feb-16 03:30N 43°35' E 010°18'0 0.0
2019-Feb-16 03:00N 43°35' E 010°18'0 0.0
2019-Feb-16 02:30N 43°35' E 010°18'0 0.0
2019-Feb-16 02:00N 43°35' E 010°18'0 0.0
2019-Feb-16 01:30N 43°35' E 010°18'0 0.0
2019-Feb-16 01:00N 43°35' E 010°18'0 0.0
2019-Feb-16 00:30N 43°35' E 010°18'0 0.0
2019-Feb-16 00:00N 43°35' E 010°18'0 0.0
2019-Feb-15 23:30N 43°35' E 010°18'0 0.0
2019-Feb-15 23:00N 43°35' E 010°18'0 0.0
2019-Feb-15 22:30N 43°35' E 010°18'0 0.0
2019-Feb-15 22:00N 43°35' E 010°18'0 0.0
2019-Feb-15 21:30N 43°35' E 010°18'0 0.0
2019-Feb-15 21:00N 43°35' E 010°18'0 0.0
2019-Feb-15 20:30N 43°35' E 010°18'0 0.0
2019-Feb-15 20:00N 43°35' E 010°18'0 0.0
2019-Feb-15 19:30N 43°35' E 010°18'0 0.0
2019-Feb-15 19:00N 43°35' E 010°18'0 0.0
2019-Feb-15 18:30N 43°35' E 010°18'0 0.0
2019-Feb-15 18:00N 43°35' E 010°18'0 0.0
2019-Feb-15 17:30N 43°35' E 010°18'0 0.0
2019-Feb-15 17:00N 43°35' E 010°18'0 0.0
2019-Feb-15 16:30N 43°35' E 010°18'0 0.0
2019-Feb-15 16:00N 43°35' E 010°18'0 0.0
2019-Feb-15 15:30N 43°35' E 010°18'0 0.0
2019-Feb-15 15:00N 43°35' E 010°18'0 0.0
2019-Feb-15 14:27N 43°35' E 010°18'0 0.0
2019-Feb-15 14:00N 43°35' E 010°18'0 0.0
2019-Feb-15 13:30N 43°35' E 010°18'0 0.0
2019-Feb-15 13:00N 43°35' E 010°18'0 0.0
2019-Feb-15 12:30N 43°35' E 010°18'0 0.0
2019-Feb-15 12:00N 43°35' E 010°18'0 0.3
2019-Feb-15 11:30N 43°35' E 010°18'2 3.5
2019-Feb-15 11:00N 43°33' E 010°17'4 7.3
2019-Feb-15 10:30N 43°30' E 010°15'714.0
2019-Feb-15 10:00N 43°23' E 010°12'715.0
2019-Feb-15 09:30N 43°16' E 010°10'715.0
2019-Feb-15 09:00N 43°09' E 010°08'714.9
2019-Feb-15 08:30N 43°01' E 010°06'815.8
2019-Feb-15 08:00N 42°53' E 010°04'815.8
2019-Feb-15 07:30N 42°46' E 010°02'815.2
2019-Feb-15 07:00N 42°39' E 010°08'916.0
2019-Feb-15 06:28N 42°33' E 010°16'715.7
2019-Feb-15 06:00N 42°28' E 010°23'815.6
2019-Feb-15 05:30N 42°22' E 010°30'815.5
2019-Feb-15 05:00N 42°17' E 010°38'815.5
2019-Feb-15 04:30N 42°11' E 010°45'1315.7
2019-Feb-15 03:40N 42°02' E 010°57'315.5
2019-Feb-15 03:30N 42°00' E 010°60'815.5
2019-Feb-15 03:00N 41°54' E 011°07'815.5
2019-Feb-15 02:30N 41°49' E 011°14'1115.7
2019-Feb-15 01:49N 41°41' E 011°24'515.8
2019-Feb-15 01:29N 41°38' E 011°29'815.8
2019-Feb-15 01:00N 41°32' E 011°36'9116.0
2019-Feb-14 19:20N 40°27' E 013°00'1015.8
2019-Feb-14 18:41N 40°20' E 013°09'416.0
2019-Feb-14 18:27N 40°17' E 013°13'11216.2
2019-Feb-14 11:31N 38°56' E 014°54'116.7
2019-Feb-14 11:27N 38°55' E 014°56'716.5
2019-Feb-14 11:00N 38°50' E 015°02'816.2
2019-Feb-14 10:30N 38°45' E 015°09'816.4
2019-Feb-14 10:00N 38°39' E 015°17'815.9
2019-Feb-14 09:30N 38°33' E 015°24'815.2
2019-Feb-14 09:00N 38°28' E 015°31'815.4
2019-Feb-14 08:30N 38°22' E 015°37'612.9
2019-Feb-14 08:00N 38°16' E 015°42'713.1
2019-Feb-14 07:30N 38°11' E 015°37'612.2
2019-Feb-14 07:00N 38°05' E 015°36'713.8
2019-Feb-14 06:30N 37°58' E 015°37'38313.0
2019-Feb-13 00:59N 37°19' E 023°37'815.5
2019-Feb-13 00:30N 37°27' E 023°40'815.7
2019-Feb-13 00:00N 37°34' E 023°42'715.0
2019-Feb-12 23:30N 37°42' E 023°41'815.4
2019-Feb-12 23:00N 37°49' E 023°37'714.2
2019-Feb-12 22:31N 37°56' E 023°37'1 2.5
2019-Feb-12 21:59N 37°57' E 023°36'0 0.0
2019-Feb-12 21:29N 37°57' E 023°36'0 0.0
2019-Feb-12 20:59N 37°57' E 023°36'0 0.0
2019-Feb-12 20:29N 37°57' E 023°36'0 0.0
2019-Feb-12 19:59N 37°57' E 023°36'0 0.0
2019-Feb-12 19:29N 37°57' E 023°36'0 0.0
2019-Feb-12 18:59N 37°57' E 023°36'0 0.0
2019-Feb-12 18:29N 37°57' E 023°36'0 0.0
2019-Feb-12 17:59N 37°57' E 023°36'0 0.0
2019-Feb-12 17:29N 37°57' E 023°36'0 0.0
2019-Feb-12 16:59N 37°57' E 023°36'0 0.0
2019-Feb-12 16:29N 37°57' E 023°36'0 0.0
2019-Feb-12 15:59N 37°57' E 023°36'0 0.0
2019-Feb-12 15:29N 37°57' E 023°36'0 0.0
2019-Feb-12 14:59N 37°57' E 023°36'0 0.0
2019-Feb-12 14:29N 37°57' E 023°36'0 0.0
2019-Feb-12 13:59N 37°57' E 023°36'0 0.0
2019-Feb-12 13:29N 37°57' E 023°36'0 0.0
2019-Feb-12 12:56N 37°57' E 023°36'0 0.0
2019-Feb-12 12:29N 37°57' E 023°36'0 0.0
2019-Feb-12 11:56N 37°57' E 023°36'0 0.0
2019-Feb-12 11:29N 37°57' E 023°36'0 0.0
2019-Feb-12 10:59N 37°57' E 023°36'0 0.0
2019-Feb-12 10:26N 37°57' E 023°36'0 0.0
2019-Feb-12 09:53N 37°57' E 023°36'0 0.0
2019-Feb-12 09:29N 37°57' E 023°36'0 0.0
2019-Feb-12 08:59N 37°57' E 023°36'0 0.0
2019-Feb-12 08:29N 37°57' E 023°36'0 0.0
2019-Feb-12 07:59N 37°57' E 023°36'0 0.0
2019-Feb-12 07:29N 37°57' E 023°36'0 0.0
2019-Feb-12 06:59N 37°57' E 023°36'0 0.0
2019-Feb-12 06:29N 37°57' E 023°36'0 0.0
2019-Feb-12 05:59N 37°57' E 023°36'0 0.0
2019-Feb-12 05:29N 37°57' E 023°36'0 0.0
2019-Feb-12 04:59N 37°57' E 023°36'0 0.0
2019-Feb-12 04:29N 37°57' E 023°36'0 0.0
2019-Feb-12 03:59N 37°57' E 023°36'0 0.0
2019-Feb-12 03:29N 37°57' E 023°36'0 0.0
2019-Feb-12 02:59N 37°57' E 023°36'0 0.0
2019-Feb-12 02:29N 37°57' E 023°36'0 0.0
2019-Feb-12 01:59N 37°57' E 023°36'0 0.0
2019-Feb-12 01:29N 37°57' E 023°36'0 0.0
2019-Feb-12 00:59N 37°57' E 023°36'0 0.0
2019-Feb-12 00:29N 37°57' E 023°36'0 0.0
2019-Feb-11 23:59N 37°57' E 023°36'0 0.0
2019-Feb-11 23:29N 37°57' E 023°36'0 0.0
2019-Feb-11 22:59N 37°57' E 023°36'0 0.0
2019-Feb-11 22:29N 37°57' E 023°36'0 0.0
2019-Feb-11 21:59N 37°57' E 023°36'0 0.0
2019-Feb-11 21:29N 37°57' E 023°36'0 0.2
2019-Feb-11 21:01N 37°57' E 023°36'2 4.4
2019-Feb-11 20:30N 37°55' E 023°37'2 4.4
2019-Feb-11 20:00N 37°53' E 023°36'1 1.1
2019-Feb-11 19:31N 37°52' E 023°36'1 1.2
2019-Feb-11 19:01N 37°52' E 023°36'1 1.1
2019-Feb-11 18:31N 37°52' E 023°35'1 1.2
2019-Feb-11 18:00N 37°51' E 023°35'0 0.9
2019-Feb-11 17:30N 37°51' E 023°34'0 0.5
2019-Feb-11 17:00N 37°51' E 023°34'0 0.4
2019-Feb-11 16:30N 37°51' E 023°34'0 0.5
2019-Feb-11 16:01N 37°50' E 023°34'0 0.5
2019-Feb-11 15:31N 37°50' E 023°34'1 1.9
2019-Feb-11 15:01N 37°50' E 023°36'2 4.8
2019-Feb-11 14:31N 37°51' E 023°39'3 6.2
2019-Feb-11 14:00N 37°48' E 023°41'3 6.1
2019-Feb-11 13:30N 37°45' E 023°43'4 7.3
2019-Feb-11 13:01N 37°42' E 023°45'4 8.1
2019-Feb-11 12:30N 37°39' E 023°48'5 9.8
2019-Feb-11 12:00N 37°36' E 023°53'5 9.2
2019-Feb-11 11:30N 37°35' E 023°59'5 9.6
2019-Feb-11 11:00N 37°35' E 024°05'16 8.0
2019-Feb-11 09:01N 37°46' E 024°19'1 9.4
2019-Feb-11 08:55N 37°47' E 024°20'410.7
2019-Feb-11 08:30N 37°49' E 024°25'1019.9
2019-Feb-11 08:00N 37°55' E 024°35'61 1.8
2019-Feb-09 22:43N 37°43' E 025°50'419.3
2019-Feb-09 22:30N 37°39' E 025°50'919.1
2019-Feb-09 22:00N 37°30' E 025°52'  
Track history (hours):
 
Tides and Currents Weather Stations Pressure Air Temp Water Temp Dewpoint Dewpoint Depression Visibility Wind Speed Wind Dir Waves Ship Positions

Zim Yokohama

Last reported at 2019-Feb-19 10:43 UTC. Time now 2019-Feb-20 18:44 UTC.
Position N 39°25' W 000°16'.

Length 260 m; draft 12.1 m.

Type: Ship (hazmat cat A). MMSI: 636013436.

Date/timePositionNaut miles runAvg speedWind from/ knotsBaromVisibWave heightAir tempDewpointWater temp
2019-Feb-19 10:43N 39°25' W 000°16'2 9.9
2019-Feb-19 10:30N 39°26' W 000°18'1 1.8
2019-Feb-19 09:52N 39°27' W 000°19'0 0.0
2019-Feb-19 09:28N 39°27' W 000°19'0 0.0
2019-Feb-19 08:58N 39°27' W 000°19'0 0.0
2019-Feb-19 08:28N 39°27' W 000°19'0 0.0
2019-Feb-19 07:43N 39°27' W 000°19'0 0.0
2019-Feb-19 07:28N 39°27' W 000°19'0 0.0
2019-Feb-19 06:58N 39°27' W 000°19'0 0.0
2019-Feb-19 06:22N 39°27' W 000°19'0 0.0
2019-Feb-19 05:55N 39°27' W 000°19'0 0.0
2019-Feb-19 05:07N 39°27' W 000°19'0 0.1
2019-Feb-19 04:58N 39°27' W 000°19'0 0.0
2019-Feb-19 04:28N 39°27' W 000°19'0 0.0
2019-Feb-19 03:58N 39°27' W 000°19'0 0.0
2019-Feb-19 03:16N 39°27' W 000°19'0 0.0
2019-Feb-19 02:58N 39°27' W 000°19'0 0.0
2019-Feb-19 02:28N 39°27' W 000°19'0 0.0
2019-Feb-19 01:58N 39°27' W 000°19'0 0.0
2019-Feb-19 01:28N 39°27' W 000°19'0 0.0
2019-Feb-19 00:55N 39°27' W 000°19'0 0.0
2019-Feb-19 00:19N 39°27' W 000°19'0 0.0
2019-Feb-18 23:58N 39°27' W 000°19'0 0.1
2019-Feb-18 23:30N 39°27' W 000°19'3 5.6
2019-Feb-18 23:00N 39°25' W 000°17'1 1.2
2019-Feb-18 22:27N 39°25' W 000°16'2 5.1
2019-Feb-18 22:00N 39°25' W 000°13'3 6.8
2019-Feb-18 21:30N 39°27' W 000°10'4 6.6
2019-Feb-18 20:56N 39°30' W 000°06'3 6.5
2019-Feb-18 20:30N 39°32' W 000°03'127 9.5
2019-Feb-18 07:10N 41°02' E 001°54'613.5
2019-Feb-18 06:45N 41°06' E 001°59'413.1
2019-Feb-18 06:26N 41°09' E 002°03'513.0
2019-Feb-18 06:01N 41°14' E 002°07'611.1
2019-Feb-18 05:31N 41°19' E 002°10'2 4.3
2019-Feb-18 04:59N 41°21' E 002°10'0 0.0
2019-Feb-18 04:29N 41°21' E 002°10'0 0.0
2019-Feb-18 03:59N 41°21' E 002°10'0 0.0
2019-Feb-18 03:29N 41°21' E 002°10'0 0.0
2019-Feb-18 02:59N 41°21' E 002°10'0 0.0
2019-Feb-18 02:29N 41°21' E 002°10'0 0.0
2019-Feb-18 01:59N 41°21' E 002°10'0 0.0
2019-Feb-18 01:29N 41°21' E 002°10'0 0.0
2019-Feb-18 00:59N 41°21' E 002°10'0 0.0
2019-Feb-18 00:20N 41°21' E 002°10'0 0.0
2019-Feb-17 23:59N 41°21' E 002°10'0 0.0
2019-Feb-17 23:29N 41°21' E 002°10'0 0.0
2019-Feb-17 22:59N 41°21' E 002°10'0 0.0
2019-Feb-17 22:29N 41°21' E 002°10'0 0.0
2019-Feb-17 21:59N 41°21' E 002°10'0 0.0
2019-Feb-17 21:29N 41°21' E 002°10'0 0.0
2019-Feb-17 20:59N 41°21' E 002°10'0 0.0
2019-Feb-17 20:29N 41°21' E 002°10'0 0.0
2019-Feb-17 19:59N 41°21' E 002°10'0 0.0
2019-Feb-17 19:29N 41°21' E 002°10'0 0.0
2019-Feb-17 18:59N 41°21' E 002°10'0 0.0
2019-Feb-17 18:29N 41°21' E 002°10'0 0.0
2019-Feb-17 17:59N 41°21' E 002°10'0 0.4
2019-Feb-17 17:30N 41°21' E 002°10'2 4.3
2019-Feb-17 17:00N 41°19' E 002°10'4 7.4
2019-Feb-17 16:30N 41°17' E 002°15'510.7
2019-Feb-17 16:00N 41°19' E 002°22'613.0
2019-Feb-17 15:30N 41°21' E 002°30'713.3
2019-Feb-17 15:00N 41°23' E 002°38'713.1
2019-Feb-17 14:27N 41°25' E 002°47'912.2
2019-Feb-17 13:44N 41°28' E 002°58'312.0
2019-Feb-17 13:30N 41°29' E 003°02'611.8
2019-Feb-17 13:00N 41°31' E 003°09'12812.5
2019-Feb-17 02:49N 42°14' E 005°51'413.3
2019-Feb-17 02:29N 42°15' E 005°56'713.6
2019-Feb-17 02:00N 42°18' E 006°05'713.5
2019-Feb-17 01:30N 42°20' E 006°13'913.3
2019-Feb-17 00:49N 42°23' E 006°25'413.2
2019-Feb-17 00:30N 42°24' E 006°30'713.3
2019-Feb-17 00:00N 42°27' E 006°39'713.2
2019-Feb-16 23:29N 42°29' E 006°47'1913.0
2019-Feb-16 22:01N 42°35' E 007°12'013.1
2019-Feb-16 21:59N 42°35' E 007°12'613.1
2019-Feb-16 21:30N 42°38' E 007°20'712.9
2019-Feb-16 21:00N 42°40' E 007°29'612.9
2019-Feb-16 20:30N 42°42' E 007°37'613.0
2019-Feb-16 20:00N 42°44' E 007°45'613.0
2019-Feb-16 19:30N 42°46' E 007°54'612.8
2019-Feb-16 19:00N 42°48' E 008°02'612.4
2019-Feb-16 18:30N 42°51' E 008°10'612.6
2019-Feb-16 18:00N 42°53' E 008°18'612.6
2019-Feb-16 17:30N 42°55' E 008°26'612.7
2019-Feb-16 17:00N 42°57' E 008°34'612.9
2019-Feb-16 16:30N 42°59' E 008°42'612.0
2019-Feb-16 16:00N 43°01' E 008°50'612.1
2019-Feb-16 15:30N 43°03' E 008°58'612.6
2019-Feb-16 15:00N 43°05' E 009°06'712.5
2019-Feb-16 14:29N 43°07' E 009°15'612.5
2019-Feb-16 14:00N 43°09' E 009°22'612.5
2019-Feb-16 13:30N 43°11' E 009°30'612.6
2019-Feb-16 13:00N 43°14' E 009°38'612.3
2019-Feb-16 12:30N 43°16' E 009°46'612.5
2019-Feb-16 12:00N 43°18' E 009°54'612.1
2019-Feb-16 11:30N 43°21' E 010°01'612.5
2019-Feb-16 11:00N 43°26' E 010°07'612.4
2019-Feb-16 10:30N 43°31' E 010°13'4 8.5
2019-Feb-16 10:00N 43°33' E 010°18'2 3.8
2019-Feb-16 09:30N 43°35' E 010°18'0 0.0
2019-Feb-16 09:00N 43°35' E 010°18'0 0.0
2019-Feb-16 08:30N 43°35' E 010°18'0 0.0
2019-Feb-16 08:00N 43°35' E 010°18'0 0.0
2019-Feb-16 07:30N 43°35' E 010°18'0 0.0
2019-Feb-16 07:00N 43°35' E 010°18'0 0.0
2019-Feb-16 06:30N 43°35' E 010°18'0 0.0
2019-Feb-16 06:00N 43°35' E 010°18'0 0.0
2019-Feb-16 05:30N 43°35' E 010°18'0 0.0
2019-Feb-16 05:00N 43°35' E 010°18'0 0.0
2019-Feb-16 04:30N 43°35' E 010°18'0 0.0
2019-Feb-16 04:00N 43°35' E 010°18'0 0.0
2019-Feb-16 03:30N 43°35' E 010°18'0 0.0
2019-Feb-16 03:00N 43°35' E 010°18'0 0.0
2019-Feb-16 02:30N 43°35' E 010°18'0 0.0
2019-Feb-16 02:00N 43°35' E 010°18'0 0.0
2019-Feb-16 01:30N 43°35' E 010°18'0 0.0
2019-Feb-16 01:00N 43°35' E 010°18'0 0.0
2019-Feb-16 00:30N 43°35' E 010°18'0 0.0
2019-Feb-16 00:00N 43°35' E 010°18'0 0.0
2019-Feb-15 23:30N 43°35' E 010°18'0 0.0
2019-Feb-15 23:00N 43°35' E 010°18'0 0.0
2019-Feb-15 22:30N 43°35' E 010°18'0 0.0
2019-Feb-15 22:00N 43°35' E 010°18'0 0.0
2019-Feb-15 21:30N 43°35' E 010°18'0 0.0
2019-Feb-15 21:00N 43°35' E 010°18'0 0.0
2019-Feb-15 20:30N 43°35' E 010°18'0 0.0
2019-Feb-15 20:00N 43°35' E 010°18'0 0.0
2019-Feb-15 19:30N 43°35' E 010°18'0 0.0
2019-Feb-15 19:00N 43°35' E 010°18'0 0.0
2019-Feb-15 18:30N 43°35' E 010°18'0 0.0
2019-Feb-15 18:00N 43°35' E 010°18'0 0.0
2019-Feb-15 17:30N 43°35' E 010°18'0 0.0
2019-Feb-15 17:00N 43°35' E 010°18'0 0.0
2019-Feb-15 16:30N 43°35' E 010°18'0 0.0
2019-Feb-15 16:00N 43°35' E 010°18'0 0.0
2019-Feb-15 15:30N 43°35' E 010°18'0 0.0
2019-Feb-15 15:00N 43°35' E 010°18'0 0.0
2019-Feb-15 14:27N 43°35' E 010°18'0 0.0
2019-Feb-15 14:00N 43°35' E 010°18'0 0.0
2019-Feb-15 13:30N 43°35' E 010°18'0 0.0
2019-Feb-15 13:00N 43°35' E 010°18'0 0.0
2019-Feb-15 12:30N 43°35' E 010°18'0 0.0
2019-Feb-15 12:00N 43°35' E 010°18'0 0.3
2019-Feb-15 11:30N 43°35' E 010°18'2 3.5
2019-Feb-15 11:00N 43°33' E 010°17'4 7.3
2019-Feb-15 10:30N 43°30' E 010°15'714.0
2019-Feb-15 10:00N 43°23' E 010°12'715.0
2019-Feb-15 09:30N 43°16' E 010°10'715.0
2019-Feb-15 09:00N 43°09' E 010°08'714.9
2019-Feb-15 08:30N 43°01' E 010°06'815.8
2019-Feb-15 08:00N 42°53' E 010°04'815.8
2019-Feb-15 07:30N 42°46' E 010°02'815.2
2019-Feb-15 07:00N 42°39' E 010°08'916.0
2019-Feb-15 06:28N 42°33' E 010°16'715.7
2019-Feb-15 06:00N 42°28' E 010°23'815.6
2019-Feb-15 05:30N 42°22' E 010°30'815.5
2019-Feb-15 05:00N 42°17' E 010°38'815.5
2019-Feb-15 04:30N 42°11' E 010°45'1315.7
2019-Feb-15 03:40N 42°02' E 010°57'315.5
2019-Feb-15 03:30N 42°00' E 010°60'815.5
2019-Feb-15 03:00N 41°54' E 011°07'815.5
2019-Feb-15 02:30N 41°49' E 011°14'1115.7
2019-Feb-15 01:49N 41°41' E 011°24'515.8
2019-Feb-15 01:29N 41°38' E 011°29'815.8
2019-Feb-15 01:00N 41°32' E 011°36'9116.0
2019-Feb-14 19:20N 40°27' E 013°00'1015.8
2019-Feb-14 18:41N 40°20' E 013°09'416.0
2019-Feb-14 18:27N 40°17' E 013°13'11216.2
2019-Feb-14 11:31N 38°56' E 014°54'116.7
2019-Feb-14 11:27N 38°55' E 014°56'716.5
2019-Feb-14 11:00N 38°50' E 015°02'816.2
2019-Feb-14 10:30N 38°45' E 015°09'816.4
2019-Feb-14 10:00N 38°39' E 015°17'815.9
2019-Feb-14 09:30N 38°33' E 015°24'815.2
2019-Feb-14 09:00N 38°28' E 015°31'815.4
2019-Feb-14 08:30N 38°22' E 015°37'612.9
2019-Feb-14 08:00N 38°16' E 015°42'713.1
2019-Feb-14 07:30N 38°11' E 015°37'612.2
2019-Feb-14 07:00N 38°05' E 015°36'713.8
2019-Feb-14 06:30N 37°58' E 015°37'38313.0
2019-Feb-13 00:59N 37°19' E 023°37'815.5
2019-Feb-13 00:30N 37°27' E 023°40'815.7
2019-Feb-13 00:00N 37°34' E 023°42'715.0
2019-Feb-12 23:30N 37°42' E 023°41'815.4
2019-Feb-12 23:00N 37°49' E 023°37'714.2
2019-Feb-12 22:31N 37°56' E 023°37'1 2.5
2019-Feb-12 21:59N 37°57' E 023°36'0 0.0
2019-Feb-12 21:29N 37°57' E 023°36'0 0.0
2019-Feb-12 20:59N 37°57' E 023°36'0 0.0
2019-Feb-12 20:29N 37°57' E 023°36'0 0.0
2019-Feb-12 19:59N 37°57' E 023°36'0 0.0
2019-Feb-12 19:29N 37°57' E 023°36'0 0.0
2019-Feb-12 18:59N 37°57' E 023°36'0 0.0
2019-Feb-12 18:29N 37°57' E 023°36'0 0.0
2019-Feb-12 17:59N 37°57' E 023°36'0 0.0
2019-Feb-12 17:29N 37°57' E 023°36'0 0.0
2019-Feb-12 16:59N 37°57' E 023°36'0 0.0
2019-Feb-12 16:29N 37°57' E 023°36'0 0.0
2019-Feb-12 15:59N 37°57' E 023°36'0 0.0
2019-Feb-12 15:29N 37°57' E 023°36'0 0.0
2019-Feb-12 14:59N 37°57' E 023°36'0 0.0
2019-Feb-12 14:29N 37°57' E 023°36'0 0.0
2019-Feb-12 13:59N 37°57' E 023°36'0 0.0
2019-Feb-12 13:29N 37°57' E 023°36'0 0.0
2019-Feb-12 12:56N 37°57' E 023°36'0 0.0
2019-Feb-12 12:29N 37°57' E 023°36'0 0.0
2019-Feb-12 11:56N 37°57' E 023°36'0 0.0
2019-Feb-12 11:29N 37°57' E 023°36'0 0.0
2019-Feb-12 10:59N 37°57' E 023°36'0 0.0
2019-Feb-12 10:26N 37°57' E 023°36'0 0.0
2019-Feb-12 09:53N 37°57' E 023°36'0 0.0
2019-Feb-12 09:29N 37°57' E 023°36'0 0.0
2019-Feb-12 08:59N 37°57' E 023°36'0 0.0
2019-Feb-12 08:29N 37°57' E 023°36'0 0.0
2019-Feb-12 07:59N 37°57' E 023°36'0 0.0
2019-Feb-12 07:29N 37°57' E 023°36'0 0.0
2019-Feb-12 06:59N 37°57' E 023°36'0 0.0
2019-Feb-12 06:29N 37°57' E 023°36'0 0.0
2019-Feb-12 05:59N 37°57' E 023°36'0 0.0
2019-Feb-12 05:29N 37°57' E 023°36'0 0.0
2019-Feb-12 04:59N 37°57' E 023°36'0 0.0
2019-Feb-12 04:29N 37°57' E 023°36'0 0.0
2019-Feb-12 03:59N 37°57' E 023°36'0 0.0
2019-Feb-12 03:29N 37°57' E 023°36'0 0.0
2019-Feb-12 02:59N 37°57' E 023°36'0 0.0
2019-Feb-12 02:29N 37°57' E 023°36'0 0.0
2019-Feb-12 01:59N 37°57' E 023°36'0 0.0
2019-Feb-12 01:29N 37°57' E 023°36'0 0.0
2019-Feb-12 00:59N 37°57' E 023°36'0 0.0
2019-Feb-12 00:29N 37°57' E 023°36'0 0.0
2019-Feb-11 23:59N 37°57' E 023°36'0 0.0
2019-Feb-11 23:29N 37°57' E 023°36'0 0.0
2019-Feb-11 22:59N 37°57' E 023°36'0 0.0
2019-Feb-11 22:29N 37°57' E 023°36'0 0.0
2019-Feb-11 21:59N 37°57' E 023°36'0 0.0
2019-Feb-11 21:29N 37°57' E 023°36'0 0.2
2019-Feb-11 21:01N 37°57' E 023°36'2 4.4
2019-Feb-11 20:30N 37°55' E 023°37'2 4.4
2019-Feb-11 20:00N 37°53' E 023°36'1 1.1
2019-Feb-11 19:31N 37°52' E 023°36'1 1.2
2019-Feb-11 19:01N 37°52' E 023°36'1 1.1
2019-Feb-11 18:31N 37°52' E 023°35'1 1.2
2019-Feb-11 18:00N 37°51' E 023°35'0 0.9
2019-Feb-11 17:30N 37°51' E 023°34'0 0.5
2019-Feb-11 17:00N 37°51' E 023°34'0 0.4
2019-Feb-11 16:30N 37°51' E 023°34'0 0.5
2019-Feb-11 16:01N 37°50' E 023°34'0 0.5
2019-Feb-11 15:31N 37°50' E 023°34'1 1.9
2019-Feb-11 15:01N 37°50' E 023°36'2 4.8
2019-Feb-11 14:31N 37°51' E 023°39'3 6.2
2019-Feb-11 14:00N 37°48' E 023°41'3 6.1
2019-Feb-11 13:30N 37°45' E 023°43'4 7.3
2019-Feb-11 13:01N 37°42' E 023°45'4 8.1
2019-Feb-11 12:30N 37°39' E 023°48'5 9.8
2019-Feb-11 12:00N 37°36' E 023°53'5 9.2
2019-Feb-11 11:30N 37°35' E 023°59'5 9.6
2019-Feb-11 11:00N 37°35' E 024°05'16 8.0
2019-Feb-11 09:01N 37°46' E 024°19'1 9.4
2019-Feb-11 08:55N 37°47' E 024°20'410.7
2019-Feb-11 08:30N 37°49' E 024°25'1019.9
2019-Feb-11 08:00N 37°55' E 024°35'61 1.8
2019-Feb-09 22:43N 37°43' E 025°50'419.3
2019-Feb-09 22:30N 37°39' E 025°50'919.1
2019-Feb-09 22:00N 37°30' E 025°52'  

Dump ship's entire track history